^^
Saratoga-Weather Station Historical Data
Daily Summary for June 4, 2021 Units:  English    Metric   Both
Daily Weekly Monthly Yearly Custom
  High: Low: Average:
Temperature: 53.8 °F 43.2 °F 49.3 °F
Dew Point: 46.6 °F 29.8 °F 38.7 °F
Humidity: 87% 43% 68%
Wind Speed: 14.1mph 0mph 3.9mph
Wind Gust: 24mph - -
Wind- - SW
Pressure: 29.9 in 29.7 in -
Precipitation: 0.29 in    
Historical Graphs
 
 
Tabular Data for June 4, 2021
Time Temperature Dew Point Pressure Wind Wind Speed Wind Gust Humidity Rainfall Rate (Hourly) solar
00:04 48.6 °F 35.8 °F 29.9 in NE 0.9 mph 2 mph 61% 0 in 0 W/m2
00:09 49.3 °F 35.6 °F 29.9 in NE 2 mph 4 mph 59% 0 in 0 W/m2
00:14 49.8 °F 35.2 °F 29.9 in NE 0.9 mph 2 mph 57% 0 in 0 W/m2
00:19 50.4 °F 35.2 °F 29.9 in North 2.9 mph 5 mph 56% 0 in 0 W/m2
00:24 50.9 °F 35.2 °F 29.9 in ENE 4 mph 4 mph 55% 0 in 0 W/m2
00:29 51.4 °F 35.4 °F 29.9 in NNE 0.9 mph 6 mph 54% 0 in 0 W/m2
00:35 51.8 °F 35.2 °F 29.9 in Calm   6 mph 53% 0 in 0 W/m2
00:40 52 °F 35.4 °F 29.9 in ENE 4 mph 5 mph 53% 0 in 0 W/m2
00:45 52.2 °F 35.6 °F 29.9 in NE 2 mph 3 mph 53% 0 in 0 W/m2
00:50 52.3 °F 35.2 °F 29.8 in NW 6.9 mph 8 mph 52% 0 in 0 W/m2
00:55 52.5 °F 35.4 °F 29.8 in North 2.9 mph 5 mph 52% 0 in 0 W/m2
01:00 52.5 °F 35.4 °F 29.8 in WNW 2.9 mph 8 mph 52% 0 in 0 W/m2
01:05 52.5 °F 35.4 °F 29.8 in ENE 0.9 mph 4 mph 52% 0 in 0 W/m2
01:10 52.5 °F 35.4 °F 29.8 in North 0.9 mph 3 mph 52% 0 in 0 W/m2
01:15 52.3 °F 35.2 °F 29.8 in NE 0.9 mph 4 mph 52% 0 in 0 W/m2
01:20 52.3 °F 35.2 °F 29.8 in North 0.9 mph 5 mph 52% 0 in 0 W/m2
01:25 52.3 °F 35.8 °F 29.8 in NE 2.9 mph 3 mph 53% 0 in 0 W/m2
01:30 52.3 °F 35.8 °F 29.8 in NNE 2.9 mph 9 mph 53% 0 in 0 W/m2
01:35 52.3 °F 35.8 °F 29.8 in North 0.9 mph 6 mph 53% 0 in 0 W/m2
01:40 52.3 °F 35.8 °F 29.8 in NNE 0.9 mph 4 mph 53% 0 in 0 W/m2
01:45 52.2 °F 35.6 °F 29.8 in NNW 2 mph 4 mph 53% 0 in 0 W/m2
01:50 52.2 °F 36 °F 29.8 in NE 2 mph 6 mph 54% 0 in 0 W/m2
01:55 52.2 °F 36 °F 29.8 in NNW 4 mph 5 mph 54% 0 in 0 W/m2
02:01 52 °F 35.8 °F 29.8 in North 2.9 mph 5 mph 54% 0 in 0 W/m2
02:06 52 °F 35.8 °F 29.8 in NNE 2 mph 8 mph 54% 0 in 0 W/m2
02:11 52 °F 35.8 °F 29.8 in NNE 2.9 mph 3 mph 54% 0 in 0 W/m2
02:16 51.8 °F 35.6 °F 29.8 in NW 2.9 mph 8 mph 54% 0 in 0 W/m2
02:21 52 °F 35.8 °F 29.8 in NE 2 mph 4 mph 54% 0 in 0 W/m2
02:26 51.8 °F 35.6 °F 29.8 in SE 0.9 mph 4 mph 54% 0 in 0 W/m2
02:31 51.6 °F 36 °F 29.8 in Calm   3 mph 55% 0 in 0 W/m2
02:36 51.4 °F 35.8 °F 29.8 in ENE 11 mph 14 mph 55% 0 in 0 W/m2
02:41 51.6 °F 36 °F 29.8 in NE 0.9 mph 3 mph 55% 0 in 0 W/m2
02:46 51.4 °F 35.8 °F 29.8 in North 4 mph 14 mph 55% 0 in 0 W/m2
02:51 51.4 °F 35.8 °F 29.8 in North 0.9 mph 4 mph 55% 0 in 0 W/m2
02:56 51.3 °F 36.1 °F 29.8 in NNE 2.9 mph 5 mph 56% 0 in 0 W/m2
03:01 51.4 °F 35.8 °F 29.8 in NW 0.9 mph 3 mph 55% 0 in 0 W/m2
03:06 51.4 °F 36.3 °F 29.8 in NW 2 mph 3 mph 56% 0 in 0 W/m2
03:11 51.3 °F 36.1 °F 29.8 in Calm   2 mph 56% 0 in 0 W/m2
03:16 51.3 °F 36.1 °F 29.8 in North 0.9 mph 3 mph 56% 0 in 0 W/m2
03:21 51.3 °F 36.1 °F 29.8 in North 2 mph 5 mph 56% 0 in 0 W/m2
03:26 51.1 °F 36 °F 29.8 in North 0.9 mph 3 mph 56% 0 in 0 W/m2
03:31 50.9 °F 36.1 °F 29.8 in WNW 4 mph 7 mph 57% 0 in 0 W/m2
03:36 50.7 °F 36 °F 29.8 in ESE 2.9 mph 4 mph 57% 0 in 0 W/m2
03:41 50.5 °F 36.3 °F 29.7 in ENE 2 mph 9 mph 58% 0 in 0 W/m2
03:46 50.5 °F 36.3 °F 29.7 in NNW 2 mph 4 mph 58% 0 in 0 W/m2
03:51 50.4 °F 36.1 °F 29.7 in NE 6 mph 9 mph 58% 0 in 0 W/m2
03:56 50.2 °F 36 °F 29.7 in ENE 2 mph 8 mph 58% 0 in 0 W/m2
04:01 50.2 °F 36 °F 29.7 in NE 2 mph 9 mph 58% 0 in 0 W/m2
04:06 50.2 °F 36.3 °F 29.7 in East 0.9 mph 3 mph 59% 0 in 0 W/m2
04:11 50.2 °F 36.3 °F 29.7 in North 2.9 mph 3 mph 59% 0 in 0 W/m2
04:16 50 °F 36.3 °F 29.7 in East 2 mph 5 mph 59% 0 in 0 W/m2
04:21 50.4 °F 36.1 °F 29.7 in NNW 2 mph 5 mph 58% 0 in 0 W/m2
04:26 50.4 °F 36.1 °F 29.7 in West 2.9 mph 10 mph 58% 0 in 0 W/m2
04:31 50.5 °F 36 °F 29.7 in West 2.9 mph 7 mph 57% 0 in 0 W/m2
04:36 50.5 °F 36 °F 29.7 in ESE 2.9 mph 5 mph 57% 0 in 0 W/m2
04:41 50.7 °F 35.6 °F 29.7 in West 2.9 mph 4 mph 56% 0 in 0 W/m2
04:47 50.9 °F 35.8 °F 29.7 in NNE 2 mph 5 mph 56% 0 in 0 W/m2
04:52 51.1 °F 35.4 °F 29.7 in NNW 6 mph 9 mph 55% 0 in 0 W/m2
04:57 51.3 °F 34.7 °F 29.7 in ENE 2 mph 6 mph 53% 0 in 0 W/m2
05:02 51.4 °F 34.3 °F 29.7 in NW 2 mph 3 mph 52% 0 in 0 W/m2
05:07 51.4 °F 34 °F 29.7 in WNW 4 mph 4 mph 51% 0 in 0 W/m2
05:12 51.6 °F 33.6 °F 29.7 in South 2.9 mph 8 mph 50% 0 in 0 W/m2
05:17 51.6 °F 33.1 °F 29.7 in NNE 2.9 mph 6 mph 49% 0 in 0 W/m2
05:22 51.8 °F 33.3 °F 29.7 in NW 2 mph 22 mph 49% 0 in 0 W/m2
05:27 51.8 °F 32.7 °F 29.7 in WNW 2.9 mph 4 mph 48% 0 in 0 W/m2
05:32 51.8 °F 32.7 °F 29.7 in WNW 8.1 mph 22 mph 48% 0 in 0 W/m2
05:37 51.8 °F 32.7 °F 29.7 in WNW 2 mph 8 mph 48% 0 in 0 W/m2
05:42 51.8 °F 32.7 °F 29.7 in NW 11 mph 11 mph 48% 0 in 0 W/m2
05:47 51.6 °F 32 °F 29.7 in West 14.1 mph 14 mph 47% 0 in 0 W/m2
05:52 51.6 °F 30.9 °F 29.7 in NNW 4.9 mph 7 mph 45% 0 in 0 W/m2
05:57 51.6 °F 30.4 °F 29.7 in SE 0.9 mph 5 mph 44% 0 in 0 W/m2
06:02 51.6 °F 29.8 °F 29.7 in West 8.1 mph 9 mph 43% 0 in 0 W/m2
06:07 51.6 °F 30.4 °F 29.7 in NNE 0.9 mph 7 mph 44% 0 in 0 W/m2
06:12 51.6 °F 30.4 °F 29.7 in WNW 0.9 mph 6 mph 44% 0 in 0 W/m2
06:17 51.6 °F 29.8 °F 29.7 in NW 4.9 mph 10 mph 43% 0 in 0 W/m2
06:22 51.6 °F 29.8 °F 29.7 in WNW 2.9 mph 8 mph 43% 0 in 0 W/m2
06:27 51.4 °F 30.2 °F 29.7 in West 2 mph 10 mph 44% 0 in 5 W/m2
06:32 51.4 °F 30.2 °F 29.7 in SSW 2.9 mph 9 mph 44% 0 in 5 W/m2
06:37 51.1 °F 31.6 °F 29.7 in NW 12.1 mph 13 mph 47% 0 in 7 W/m2
06:42 50.4 °F 33.4 °F 29.7 in West 2 mph 8 mph 52% 0 in 5 W/m2
06:47 49.3 °F 33.8 °F 29.7 in NW 4.9 mph 13 mph 55% 0.01 in 5 W/m2
06:52 48.4 °F 35.1 °F 29.7 in South 2 mph 10 mph 60% 0.02 in 5 W/m2
06:57 47.3 °F 36.1 °F 29.7 in West 2 mph 13 mph 65% 0.03 in 7 W/m2
07:02 46.2 °F 36.3 °F 29.7 in NNW 4.9 mph 5 mph 68% 0.05 in 12 W/m2
07:07 45.9 °F 37 °F 29.7 in NNW 0.9 mph 7 mph 71% 0.06 in 21 W/m2
07:12 45.3 °F 36.9 °F 29.7 in WSW 2 mph 6 mph 72% 0.06 in 21 W/m2
07:17 45.1 °F 36.7 °F 29.7 in NW 4.9 mph 10 mph 72% 0.07 in 19 W/m2
07:22 45 °F 37.2 °F 29.7 in NW 4.9 mph 9 mph 74% 0.08 in 21 W/m2
07:27 44.6 °F 37.2 °F 29.7 in North 10.1 mph 11 mph 75% 0.09 in 23 W/m2
07:32 44.4 °F 37.6 °F 29.7 in WNW 4 mph 8 mph 77% 0.1 in 25 W/m2
07:37 44.1 °F 37.6 °F 29.7 in NNW 4 mph 11 mph 78% 0.12 in 23 W/m2
07:42 43.9 °F 37.8 °F 29.7 in NW 0.9 mph 7 mph 79% 0.13 in 25 W/m2
07:47 43.7 °F 37.9 °F 29.7 in North 2 mph 9 mph 80% 0.13 in 26 W/m2
07:52 43.7 °F 38.3 °F 29.7 in ESE 2 mph 4 mph 81% 0.13 in 33 W/m2
07:57 43.5 °F 38.5 °F 29.7 in West 2 mph 4 mph 82% 0.13 in 25 W/m2
08:02 43.3 °F 38.3 °F 29.7 in NW 2 mph 4 mph 82% 0.13 in 32 W/m2
08:07 43.3 °F 38.3 °F 29.7 in SSW 2 mph 3 mph 82% 0.13 in 30 W/m2
08:12 43.3 °F 38.3 °F 29.7 in NE 0.9 mph 12 mph 82% 0.13 in 26 W/m2
08:17 43.3 °F 38.5 °F 29.7 in NNW 2.9 mph 11 mph 83% 0.13 in 30 W/m2
08:22 43.2 °F 38.7 °F 29.7 in West 0.9 mph 11 mph 84% 0.14 in 33 W/m2
08:27 43.2 °F 38.7 °F 29.7 in NNW 2 mph 9 mph 84% 0.13 in 42 W/m2
08:32 43.2 °F 38.7 °F 29.7 in ENE 6 mph 8 mph 84% 0.13 in 40 W/m2
08:37 43.2 °F 39 °F 29.7 in NW 4 mph 13 mph 85% 0.13 in 53 W/m2
08:42 43.2 °F 39 °F 29.7 in NNW 4 mph 6 mph 85% 0.13 in 63 W/m2
08:47 43.2 °F 39.2 °F 29.7 in NNE 2.9 mph 13 mph 86% 0.13 in 86 W/m2
08:52 43.2 °F 39.2 °F 29.7 in ESE 4 mph 7 mph 86% 0.11 in 95 W/m2
08:57 43.3 °F 39.4 °F 29.7 in NW 6 mph 8 mph 86% 0.11 in 74 W/m2
09:02 43.5 °F 39.6 °F 29.7 in ENE 0.9 mph 6 mph 86% 0.1 in 102 W/m2
09:07 43.5 °F 39.6 °F 29.7 in North 4 mph 4 mph 86% 0.1 in 120 W/m2
09:12 43.7 °F 39.7 °F 29.7 in East 2.9 mph 6 mph 86% 0.09 in 97 W/m2
09:17 43.9 °F 40.3 °F 29.7 in West 2.9 mph 11 mph 87% 0.08 in 128 W/m2
09:22 43.9 °F 40.3 °F 29.7 in WSW 4 mph 18 mph 87% 0.07 in 153 W/m2
09:27 44.1 °F 40.5 °F 29.7 in ENE 8.1 mph 8 mph 87% 0.06 in 171 W/m2
09:32 44.2 °F 40.6 °F 29.7 in WSW 2 mph 8 mph 87% 0.06 in 165 W/m2
09:37 44.6 °F 41 °F 29.7 in NE 0.9 mph 12 mph 87% 0.05 in 211 W/m2
09:42 44.8 °F 41.2 °F 29.7 in NW 10.1 mph 10 mph 87% 0.04 in 206 W/m2
09:47 45 °F 41 °F 29.7 in NW 8.1 mph 11 mph 86% 0.03 in 165 W/m2
09:52 45.1 °F 41.2 °F 29.7 in WNW 6 mph 12 mph 86% 0.03 in 199 W/m2
09:57 45.1 °F 41.2 °F 29.7 in NNW 2 mph 9 mph 86% 0.02 in 230 W/m2
10:02 45.3 °F 41.7 °F 29.7 in West 6 mph 11 mph 87% 0.02 in 236 W/m2
10:07 45.7 °F 41.7 °F 29.7 in West 13 mph 13 mph 86% 0.01 in 183 W/m2
10:12 45.7 °F 41.7 °F 29.7 in NW 4.9 mph 9 mph 86% 0.01 in 125 W/m2
10:17 45.7 °F 41.7 °F 29.7 in NNW 4 mph 13 mph 86% 0 in 220 W/m2
10:22 45.9 °F 41.9 °F 29.7 in NW 2 mph 9 mph 86% 0 in 172 W/m2
10:27 45.9 °F 41.9 °F 29.7 in NNE 2 mph 11 mph 86% 0 in 185 W/m2
10:32 46 °F 42.1 °F 29.7 in West 2 mph 13 mph 86% 0 in 195 W/m2
10:37 46.2 °F 42.3 °F 29.7 in NNE 2 mph 6 mph 86% 0 in 155 W/m2
10:42 46.6 °F 42.6 °F 29.7 in NW 2 mph 7 mph 86% 0 in 223 W/m2
10:47 46.9 °F 43 °F 29.7 in WNW 10.1 mph 12 mph 86% 0 in 255 W/m2
10:52 47.1 °F 43.2 °F 29.7 in NNW 6 mph 14 mph 86% 0 in 322 W/m2
10:57 47.7 °F 43.7 °F 29.7 in North 2.9 mph 6 mph 86% 0 in 436 W/m2
11:02 48.2 °F 43.9 °F 29.7 in North 2 mph 17 mph 85% 0 in 316 W/m2
11:07 48.4 °F 44.1 °F 29.7 in NW 2.9 mph 4 mph 85% 0 in 294 W/m2
11:12 48.6 °F 44.2 °F 29.7 in NNW 4.9 mph 6 mph 85% 0 in 325 W/m2
11:17 48.6 °F 44.2 °F 29.7 in NNW 4.9 mph 10 mph 85% 0 in 411 W/m2
11:22 48.7 °F 44.4 °F 29.7 in NW 2 mph 7 mph 85% 0 in 338 W/m2
11:27 48.9 °F 44.2 °F 29.7 in West 6.9 mph 13 mph 84% 0 in 322 W/m2
11:32 49.3 °F 45 °F 29.7 in NW 4.9 mph 8 mph 85% 0 in 288 W/m2
11:37 49.5 °F 44.8 °F 29.7 in West 13 mph 16 mph 84% 0 in 350 W/m2
11:42 49.5 °F 44.8 °F 29.7 in NW 6 mph 11 mph 84% 0 in 374 W/m2
11:47 49.6 °F 45 °F 29.7 in NW 0.9 mph 8 mph 84% 0 in 396 W/m2
11:52 49.8 °F 44.8 °F 29.7 in NNW 4.9 mph 14 mph 83% 0 in 176 W/m2
11:57 49.8 °F 44.8 °F 29.7 in WNW 11 mph 15 mph 83% 0 in 292 W/m2
12:02 49.8 °F 44.8 °F 29.7 in South 4 mph 12 mph 83% 0 in 299 W/m2
12:07 49.8 °F 44.8 °F 29.7 in West 6.9 mph 15 mph 83% 0 in 427 W/m2
12:12 50.2 °F 45.1 °F 29.7 in West 6 mph 13 mph 83% 0 in 478 W/m2
12:17 50.4 °F 45.3 °F 29.7 in West 6 mph 18 mph 83% 0 in 496 W/m2
12:22 50.5 °F 45.5 °F 29.7 in South 4 mph 11 mph 83% 0 in 281 W/m2
12:27 50.5 °F 45.5 °F 29.7 in NE 4.9 mph 7 mph 83% 0 in 343 W/m2
12:32 50.5 °F 45.5 °F 29.7 in WNW 6.9 mph 9 mph 83% 0 in 387 W/m2
12:37 51.1 °F 45.9 °F 29.7 in NNE 4.9 mph 10 mph 82% 0 in 410 W/m2
12:42 51.3 °F 45.7 °F 29.7 in NE 2 mph 9 mph 81% 0 in 341 W/m2
12:47 51.8 °F 46.4 °F 29.7 in WNW 8.9 mph 9 mph 82% 0 in 803 W/m2
12:53 52.2 °F 45.9 °F 29.7 in NNW 2.9 mph 16 mph 79% 0 in 401 W/m2
12:58 52.2 °F 45.9 °F 29.7 in East 0.9 mph 9 mph 79% 0 in 499 W/m2
13:03 52.3 °F 45.7 °F 29.7 in NW 6 mph 18 mph 78% 0 in 448 W/m2
13:08 52.3 °F 45.7 °F 29.7 in NNW 4.9 mph 5 mph 78% 0 in 578 W/m2
13:13 52.9 °F 46.6 °F 29.7 in ENE 2 mph 18 mph 79% 0 in 341 W/m2
13:18 53.1 °F 46 °F 29.7 in West 6.9 mph 8 mph 77% 0 in 283 W/m2
13:23 53.1 °F 46 °F 29.7 in West 8.1 mph 14 mph 77% 0 in 420 W/m2
13:28 53.1 °F 46 °F 29.7 in SE 8.1 mph 24 mph 77% 0 in 367 W/m2
13:33 53.2 °F 46.2 °F 29.7 in WSW 2.9 mph 10 mph 77% 0 in 325 W/m2
13:38 53.6 °F 46.2 °F 29.7 in WNW 12.1 mph 23 mph 76% 0 in 257 W/m2
13:43 53.8 °F 46 °F 29.7 in WNW 2.9 mph 9 mph 75% 0 in 271 W/m2
13:48 53.8 °F 45.7 °F 29.7 in SSE 6 mph 8 mph 74% 0 in 178 W/m2
13:53 53.8 °F 46 °F 29.7 in WNW 6.9 mph 8 mph 75% 0 in 244 W/m2
13:58 53.6 °F 45.9 °F 29.7 in NE 0.9 mph 5 mph 75% 0 in 274 W/m2
14:03 53.4 °F 46 °F 29.7 in West 8.1 mph 8 mph 76% 0 in 243 W/m2
14:08 53.4 °F 46 °F 29.7 in WNW 11 mph 13 mph 76% 0 in 346 W/m2
14:13 53.4 °F 46 °F 29.7 in NNE 10.1 mph 10 mph 76% 0 in 248 W/m2
Juneau County Weather
Compliments of Weather Underground - 2 mb